createdAt,value
2017-02-06T00:00:14.280Z,1013.2
2017-02-06T00:00:59.543Z,1013.24
2017-02-06T00:01:46.283Z,1013.25
2017-02-06T00:02:36.292Z,1013.2
2017-02-06T00:03:31.324Z,1013.26
2017-02-06T00:04:19.446Z,1013.28
2017-02-06T00:05:01.302Z,1013.25
2017-02-06T00:05:41.825Z,1013.3
2017-02-06T00:06:23.797Z,1013.27
2017-02-06T00:07:25.937Z,1013.3
2017-02-06T00:08:09.809Z,1013.3
2017-02-06T00:08:52.796Z,1013.3
2017-02-06T00:09:42.802Z,1013.33
2017-02-06T00:10:24.957Z,1013.27
2017-02-06T00:11:07.814Z,1013.31
2017-02-06T00:11:52.806Z,1013.33
2017-02-06T00:12:34.949Z,1013.3
2017-02-06T00:13:23.027Z,1013.36
2017-02-06T00:14:04.430Z,1013.39
2017-02-06T00:14:49.287Z,1013.39
2017-02-06T00:15:32.277Z,1013.4
2017-02-06T00:16:15.706Z,1013.44
2017-02-06T00:17:01.780Z,1013.4
2017-02-06T00:17:46.799Z,1013.46
2017-02-06T00:18:27.276Z,1013.47
2017-02-06T00:19:09.501Z,1013.47
2017-02-06T00:20:00.322Z,1013.5
2017-02-06T00:20:40.837Z,1013.45
2017-02-06T00:21:26.794Z,1013.42
2017-02-06T00:22:13.915Z,1013.4
2017-02-06T00:23:02.809Z,1013.42
2017-02-06T00:23:56.947Z,1013.5
2017-02-06T00:27:59.716Z,1013.5
2017-02-06T00:28:51.411Z,1013.52
2017-02-06T00:29:36.561Z,1013.49
2017-02-06T00:30:18.313Z,1013.51
2017-02-06T00:30:59.334Z,1013.51
2017-02-06T00:31:41.652Z,1013.53
2017-02-06T00:32:25.463Z,1013.53
2017-02-06T00:33:07.472Z,1013.56
2017-02-06T00:33:53.321Z,1013.56
2017-02-06T00:34:35.825Z,1013.57
2017-02-06T00:35:20.934Z,1013.6
2017-02-06T00:36:04.157Z,1013.55
2017-02-06T00:37:01.335Z,1013.61
2017-02-06T00:37:45.476Z,1013.62
2017-02-06T00:38:31.542Z,1013.56
2017-02-06T00:39:17.308Z,1013.64
2017-02-06T00:39:59.727Z,1013.59
2017-02-06T00:40:42.704Z,1013.58
2017-02-06T00:41:25.052Z,1013.65
2017-02-06T00:42:08.336Z,1013.62
2017-02-06T00:42:55.316Z,1013.63
2017-02-06T00:43:43.309Z,1013.67
2017-02-06T00:44:23.807Z,1013.61
2017-02-06T00:45:06.916Z,1013.68
2017-02-06T00:45:49.930Z,1013.65
2017-02-06T00:46:33.929Z,1013.69
2017-02-06T00:47:16.951Z,1013.72
2017-02-06T00:48:01.979Z,1013.68
2017-02-06T00:48:43.220Z,1013.73
2017-02-06T00:49:33.347Z,1013.75
2017-02-06T00:50:18.452Z,1013.72
2017-02-06T00:51:14.445Z,1013.68
2017-02-06T00:52:09.804Z,1013.7
2017-02-06T00:52:55.813Z,1013.76
2017-02-06T00:53:37.965Z,1013.73
2017-02-06T00:54:20.123Z,1013.72
2017-02-06T00:55:09.312Z,1013.72
2017-02-06T00:55:54.306Z,1013.72
2017-02-06T00:56:37.596Z,1013.8
2017-02-06T00:57:23.823Z,1013.78
2017-02-06T00:58:04.924Z,1013.75
2017-02-06T00:58:47.809Z,1013.82
2017-02-06T00:59:37.834Z,1013.75
2017-02-06T01:00:21.834Z,1013.8
2017-02-06T01:01:04.024Z,1013.79
2017-02-06T01:01:47.805Z,1013.85
2017-02-06T01:03:40.878Z,1013.85
2017-02-06T01:04:23.880Z,1013.85
2017-02-06T01:05:08.890Z,1013.89
2017-02-06T01:05:56.289Z,1013.89
2017-02-06T01:06:40.892Z,1013.89
2017-02-06T01:07:33.882Z,1013.89
2017-02-06T01:08:17.095Z,1013.89
2017-02-06T01:09:11.139Z,1013.89
2017-02-06T01:10:00.136Z,1013.9
2017-02-06T01:10:48.417Z,1013.91
2017-02-06T01:11:33.375Z,1013.88
2017-02-06T01:14:04.716Z,1013.94
2017-02-06T01:14:45.132Z,1013.93
2017-02-06T01:15:28.159Z,1013.95
2017-02-06T01:16:09.278Z,1013.97
2017-02-06T01:17:07.121Z,1013.98
2017-02-06T01:17:51.373Z,1013.98
2017-02-06T01:18:37.027Z,1013.97
2017-02-06T01:19:18.536Z,1013.95
2017-02-06T01:19:59.932Z,1013.97
2017-02-06T01:20:42.670Z,1013.96
2017-02-06T01:21:23.122Z,1013.97
2017-02-06T01:22:07.326Z,1013.97
2017-02-06T01:22:48.303Z,1013.99
2017-02-06T01:23:31.322Z,1014.04
2017-02-06T01:24:30.029Z,1014.01
2017-02-06T01:25:11.163Z,1014
2017-02-06T01:25:54.019Z,1014.06
2017-02-06T01:26:41.044Z,1014.14
2017-02-06T01:27:24.015Z,1014.14
2017-02-06T01:28:12.027Z,1014.14
2017-02-06T01:28:59.427Z,1014.19
2017-02-06T01:29:44.049Z,1014.21
2017-02-06T01:30:29.234Z,1014.21
2017-02-06T01:31:14.031Z,1014.18
2017-02-06T01:31:57.228Z,1014.25
2017-02-06T01:32:44.023Z,1014.24
2017-02-06T01:33:28.153Z,1014.21
2017-02-06T01:34:10.040Z,1014.26
2017-02-06T01:34:56.145Z,1014.28
2017-02-06T01:35:39.147Z,1014.27
2017-02-06T01:36:27.024Z,1014.29
2017-02-06T01:37:08.238Z,1014.26
2017-02-06T01:37:51.242Z,1014.32
2017-02-06T01:38:34.027Z,1014.34
2017-02-06T01:39:15.145Z,1014.37
2017-02-06T01:39:58.022Z,1014.37
2017-02-06T01:40:40.441Z,1014.36
2017-02-06T01:41:24.636Z,1014.37
2017-02-06T01:42:06.531Z,1014.38
2017-02-06T01:42:48.747Z,1014.39
2017-02-06T01:43:35.531Z,1014.4
2017-02-06T01:44:15.999Z,1014.39
2017-02-06T01:44:56.501Z,1014.4
2017-02-06T01:45:41.637Z,1014.41
2017-02-06T01:46:27.637Z,1014.43
2017-02-06T01:47:12.523Z,1014.42
2017-02-06T01:47:55.654Z,1014.43
2017-02-06T01:48:39.854Z,1014.42
2017-02-06T01:49:27.531Z,1014.42
2017-02-06T01:50:23.556Z,1014.41
2017-02-06T01:51:06.735Z,1014.46
2017-02-06T01:51:47.854Z,1014.43
2017-02-06T01:52:32.147Z,1014.42
2017-02-06T01:53:15.251Z,1014.42
2017-02-06T01:54:00.051Z,1014.37
2017-02-06T01:54:46.016Z,1014.44
2017-02-06T01:55:29.153Z,1014.47
2017-02-06T01:56:18.129Z,1014.48
2017-02-06T01:57:00.275Z,1014.49
2017-02-06T01:57:43.264Z,1014.45
2017-02-06T01:58:33.030Z,1014.46
2017-02-06T01:59:21.024Z,1014.53
2017-02-06T02:00:09.276Z,1014.5
2017-02-06T02:00:57.007Z,1014.51
2017-02-06T02:01:48.004Z,1014.51
2017-02-06T02:02:37.032Z,1014.52
2017-02-06T02:03:21.196Z,1014.52
2017-02-06T02:04:11.037Z,1014.57
2017-02-06T02:05:02.141Z,1014.55
2017-02-06T02:05:47.246Z,1014.58
2017-02-06T02:06:28.410Z,1014.56
2017-02-06T02:08:57.984Z,1014.62
2017-02-06T02:09:40.161Z,1014.59
2017-02-06T02:10:25.290Z,1014.59
2017-02-06T02:11:06.457Z,1014.62
2017-02-06T02:13:23.609Z,1014.61
2017-02-06T02:14:12.261Z,1014.66
2017-02-06T02:14:56.426Z,1014.63
2017-02-06T02:15:41.291Z,1014.69
2017-02-06T02:16:26.558Z,1014.69
2017-02-06T02:17:07.613Z,1014.7
2017-02-06T02:17:50.899Z,1014.71
2017-02-06T02:18:35.798Z,1014.7
2017-02-06T02:19:18.011Z,1014.74
2017-02-06T02:19:59.281Z,1014.69
2017-02-06T02:20:41.269Z,1014.74
2017-02-06T02:21:25.395Z,1014.69
2017-02-06T02:22:08.766Z,1014.72
2017-02-06T02:22:57.793Z,1014.76
2017-02-06T02:23:46.993Z,1014.75
2017-02-06T02:24:35.772Z,1014.77
2017-02-06T02:25:20.890Z,1014.77
2017-02-06T02:26:09.777Z,1014.77
2017-02-06T02:26:51.792Z,1014.79
2017-02-06T02:27:34.911Z,1014.8
2017-02-06T02:28:17.059Z,1014.82
2017-02-06T02:28:57.567Z,1014.83
2017-02-06T02:29:44.521Z,1014.84
2017-02-06T02:30:24.976Z,1014.81
2017-02-06T02:31:07.105Z,1014.84
2017-02-06T02:31:48.271Z,1014.78
2017-02-06T02:32:31.265Z,1014.79
2017-02-06T02:33:17.255Z,1014.85
2017-02-06T02:34:00.401Z,1014.83
2017-02-06T02:34:45.278Z,1014.85
2017-02-06T02:35:26.261Z,1014.84
2017-02-06T03:01:31.133Z,1015.29
2017-02-06T03:04:51.593Z,1015.38
2017-02-06T03:05:32.579Z,1015.35
2017-02-06T03:06:14.794Z,1015.34
2017-02-06T03:06:58.580Z,1015.4
2017-02-06T03:07:48.578Z,1015.37
2017-02-06T03:08:30.070Z,1015.42
2017-02-06T03:09:12.278Z,1015.43
2017-02-06T03:09:54.459Z,1015.41
2017-02-06T03:10:36.592Z,1015.44
2017-02-06T03:11:20.706Z,1015.47
2017-02-06T03:12:07.695Z,1015.48
2017-02-06T03:12:58.561Z,1015.52
2017-02-06T03:13:44.587Z,1015.48
2017-02-06T03:14:29.608Z,1015.52
2017-02-06T03:15:14.579Z,1015.5
2017-02-06T03:15:56.724Z,1015.52
2017-02-06T03:16:40.700Z,1015.51
2017-02-06T03:17:25.581Z,1015.54
2017-02-06T03:18:16.592Z,1015.53
2017-02-06T03:18:57.054Z,1015.56
2017-02-06T03:19:43.129Z,1015.59
2017-02-06T03:23:55.511Z,1015.65
2017-02-06T03:24:35.939Z,1015.64
2017-02-06T03:25:19.362Z,1015.62
2017-02-06T03:26:00.699Z,1015.63
2017-02-06T03:26:42.849Z,1015.69
2017-02-06T03:27:30.002Z,1015.68
2017-02-06T03:28:10.482Z,1015.69
2017-02-06T03:28:56.337Z,1015.67
2017-02-06T03:29:51.391Z,1015.73
2017-02-06T03:30:32.500Z,1015.65
2017-02-06T03:31:16.356Z,1015.73
2017-02-06T03:32:03.483Z,1015.73
2017-02-06T03:32:44.730Z,1015.72
2017-02-06T03:33:30.880Z,1015.76
2017-02-06T03:34:20.833Z,1015.74
2017-02-06T03:35:04.160Z,1015.79
2017-02-06T03:35:51.851Z,1015.82
2017-02-06T03:36:33.873Z,1015.79
2017-02-06T03:37:27.997Z,1015.79
2017-02-06T03:38:09.981Z,1015.9
2017-02-06T03:38:53.849Z,1015.83
2017-02-06T03:39:43.849Z,1015.88
2017-02-06T03:40:30.967Z,1015.96
2017-02-06T03:41:13.358Z,1015.93
2017-02-06T03:41:57.355Z,1015.98
2017-02-06T03:42:43.345Z,1015.96
2017-02-06T03:43:30.355Z,1015.95
2017-02-06T03:44:14.347Z,1015.94
2017-02-06T03:45:00.369Z,1015.98
2017-02-06T03:45:43.344Z,1016
2017-02-06T03:46:25.577Z,1015.96
2017-02-06T03:47:08.675Z,1016.01
2017-02-06T03:47:50.674Z,1016.03
2017-02-06T03:48:33.354Z,1016.06
2017-02-06T03:49:14.775Z,1016.06
2017-02-06T03:49:57.358Z,1016.02
2017-02-06T03:50:37.872Z,1016.12
2017-02-06T03:53:09.946Z,1016.11
2017-02-06T03:53:55.284Z,1016.14
2017-02-06T03:54:39.302Z,1016.15
2017-02-06T03:55:26.193Z,1016.13
2017-02-06T03:56:09.318Z,1016.1
2017-02-06T03:56:52.701Z,1016.14
2017-02-06T03:57:36.682Z,1016.15
2017-02-06T03:58:20.078Z,1016.12
2017-02-06T03:59:10.694Z,1016.17
2017-02-06T03:59:52.685Z,1016.15
2017-02-06T04:00:38.686Z,1016.17
2017-02-06T04:01:19.178Z,1016.21
2017-02-06T04:02:03.351Z,1016.18
2017-02-06T04:02:51.183Z,1016.2
2017-02-06T04:03:34.175Z,1016.23
2017-02-06T04:04:19.303Z,1016.17
2017-02-06T04:05:04.163Z,1016.21
2017-02-06T04:05:50.187Z,1016.25
2017-02-06T04:06:30.674Z,1016.24
2017-02-06T04:07:11.850Z,1016.27
2017-02-06T04:07:58.675Z,1016.31
2017-02-06T04:08:39.795Z,1016.28
2017-02-06T04:09:23.723Z,1016.3
2017-02-06T04:10:04.149Z,1016.27
2017-02-06T04:10:45.194Z,1016.34
2017-02-06T04:11:28.366Z,1016.31
2017-02-06T04:12:09.800Z,1016.33
2017-02-06T04:12:52.690Z,1016.38
2017-02-06T04:13:40.670Z,1016.4
2017-02-06T04:14:24.834Z,1016.4
2017-02-06T04:15:05.359Z,1016.43
2017-02-06T04:15:45.866Z,1016.43
2017-02-06T04:16:27.201Z,1016.48
2017-02-06T04:17:12.182Z,1016.49
2017-02-06T04:17:56.356Z,1016.51
2017-02-06T04:18:37.411Z,1016.48
2017-02-06T04:19:18.572Z,1016.5
2017-02-06T04:20:08.672Z,1016.56
2017-02-06T04:20:53.915Z,1016.54
2017-02-06T04:21:37.681Z,1016.55
2017-02-06T04:22:18.681Z,1016.62
2017-02-06T04:23:00.682Z,1016.6
2017-02-06T04:23:43.678Z,1016.55
2017-02-06T04:24:24.688Z,1016.6
2017-02-06T04:25:07.061Z,1016.61
2017-02-06T04:25:56.819Z,1016.6
2017-02-06T04:26:40.818Z,1016.65
2017-02-06T04:27:23.004Z,1016.62
2017-02-06T04:28:06.904Z,1016.72
2017-02-06T04:28:48.186Z,1016.73
2017-02-06T04:29:34.310Z,1016.71
2017-02-06T04:30:19.576Z,1016.69
2017-02-06T04:31:02.298Z,1016.71
2017-02-06T04:31:44.399Z,1016.74
2017-02-06T04:32:27.327Z,1016.75
2017-02-06T04:33:12.565Z,1016.73
2017-02-06T04:33:53.782Z,1016.76
2017-02-06T04:34:35.684Z,1016.81
2017-02-06T04:35:19.887Z,1016.79
2017-02-06T04:36:02.817Z,1016.81
2017-02-06T04:36:44.082Z,1016.8
2017-02-06T04:37:27.415Z,1016.82
2017-02-06T04:38:08.681Z,1016.81
2017-02-06T04:38:49.178Z,1016.77
2017-02-06T04:39:30.601Z,1016.81
2017-02-06T04:40:13.691Z,1016.8
2017-02-06T04:40:57.799Z,1016.84
2017-02-06T04:41:38.298Z,1016.85
2017-02-06T04:42:20.605Z,1016.87
2017-02-06T04:43:03.167Z,1016.83
2017-02-06T04:43:45.319Z,1016.83
2017-02-06T04:44:29.325Z,1016.91
2017-02-06T04:45:13.175Z,1016.87
2017-02-06T04:45:53.664Z,1016.87
2017-02-06T04:46:36.799Z,1016.86
2017-02-06T04:47:17.269Z,1016.92
2017-02-06T04:47:58.496Z,1016.91
2017-02-06T04:48:45.308Z,1016.94
2017-02-06T04:49:27.370Z,1016.96
2017-02-06T04:50:13.196Z,1016.88
2017-02-06T04:50:57.176Z,1016.97
2017-02-06T04:51:38.626Z,1016.97
2017-02-06T04:52:21.678Z,1017
2017-02-06T04:53:03.832Z,1016.99
2017-02-06T04:53:45.080Z,1017
2017-02-06T04:54:27.164Z,1017.01
2017-02-06T04:55:08.679Z,1017.04
2017-02-06T04:55:50.177Z,1017.03
2017-02-06T04:56:33.410Z,1017.06
2017-02-06T04:57:16.492Z,1017.06
2017-02-06T04:57:58.292Z,1017.09
2017-02-06T04:58:45.418Z,1017.09
2017-02-06T04:59:33.176Z,1017.1
2017-02-06T05:00:15.386Z,1017.15
2017-02-06T05:00:55.871Z,1017.1
2017-02-06T05:01:38.882Z,1017.17
2017-02-06T05:02:20.989Z,1017.17
2017-02-06T05:03:02.689Z,1017.17
2017-02-06T05:03:44.705Z,1017.11
2017-02-06T05:06:17.110Z,1017.27
2017-02-06T05:07:07.030Z,1017.27
2017-02-06T05:08:00.989Z,1017.27
2017-02-06T05:08:44.115Z,1017.29
2017-02-06T05:09:25.993Z,1017.34
2017-02-06T05:10:07.376Z,1017.34
2017-02-06T05:10:55.298Z,1017.35
2017-02-06T05:11:37.220Z,1017.37
2017-02-06T05:12:17.706Z,1017.4
2017-02-06T05:12:58.213Z,1017.42
2017-02-06T05:13:38.751Z,1017.45
2017-02-06T05:14:19.206Z,1017.43
2017-02-06T05:14:59.689Z,1017.43
2017-02-06T05:15:40.170Z,1017.44
2017-02-06T05:16:20.841Z,1017.5
2017-02-06T05:17:01.965Z,1017.49
2017-02-06T05:17:42.764Z,1017.48
2017-02-06T05:18:23.493Z,1017.52
2017-02-06T05:19:04.228Z,1017.5
2017-02-06T05:19:44.851Z,1017.53
2017-02-06T05:20:25.353Z,1017.51
2017-02-06T05:21:05.838Z,1017.52
2017-02-06T05:21:46.817Z,1017.58
2017-02-06T05:22:27.293Z,1017.54
2017-02-06T05:23:07.785Z,1017.53
2017-02-06T05:23:48.564Z,1017.53
2017-02-06T05:24:29.042Z,1017.56
2017-02-06T05:25:09.615Z,1017.58
2017-02-06T05:25:50.128Z,1017.54
2017-02-06T05:26:30.598Z,1017.53
2017-02-06T05:27:11.066Z,1017.54
2017-02-06T05:27:51.550Z,1017.55
2017-02-06T05:28:32.114Z,1017.54
2017-02-06T05:29:12.613Z,1017.53
2017-02-06T05:29:53.250Z,1017.57
2017-02-06T05:30:33.763Z,1017.62
2017-02-06T05:31:14.230Z,1017.64
2017-02-06T05:31:54.724Z,1017.64
2017-02-06T05:32:35.230Z,1017.65
2017-02-06T05:33:15.729Z,1017.66
2017-02-06T05:33:56.221Z,1017.63
2017-02-06T05:34:36.667Z,1017.66
2017-02-06T05:35:17.140Z,1017.69
2017-02-06T05:35:57.614Z,1017.69
2017-02-06T05:36:38.102Z,1017.72
2017-02-06T05:37:18.643Z,1017.73
2017-02-06T05:37:59.114Z,1017.69
2017-02-06T05:38:39.609Z,1017.77
2017-02-06T05:39:20.084Z,1017.76
2017-02-06T05:40:00.572Z,1017.71
2017-02-06T05:40:41.054Z,1017.75
2017-02-06T05:41:21.548Z,1017.75
2017-02-06T05:42:02.055Z,1017.78
2017-02-06T05:42:42.534Z,1017.83
2017-02-06T05:43:23.033Z,1017.84
2017-02-06T05:44:03.507Z,1017.84
2017-02-06T05:44:44.000Z,1017.88
2017-02-06T05:45:24.480Z,1017.9
2017-02-06T05:46:04.978Z,1017.91
2017-02-06T05:46:45.435Z,1017.93
2017-02-06T05:47:25.940Z,1017.91
2017-02-06T05:48:06.427Z,1017.94
2017-02-06T05:48:46.912Z,1017.85
2017-02-06T05:49:27.420Z,1017.91
2017-02-06T05:50:07.948Z,1017.9
2017-02-06T05:50:48.431Z,1017.92
2017-02-06T05:51:28.961Z,1017.94
2017-02-06T05:52:09.445Z,1017.96
2017-02-06T05:52:49.977Z,1017.91
2017-02-06T05:53:30.449Z,1017.95
2017-02-06T05:54:10.922Z,1017.96
2017-02-06T05:54:53.304Z,1017.98
2017-02-06T05:55:33.776Z,1017.97
2017-02-06T05:56:14.261Z,1018.03
2017-02-06T05:56:54.750Z,1018.06
2017-02-06T05:57:35.264Z,1018.05
2017-02-06T05:58:15.758Z,1018.02
2017-02-06T05:58:56.240Z,1018.08
2017-02-06T05:59:36.733Z,1018.05
2017-02-06T06:00:17.197Z,1018.08
2017-02-06T06:00:57.691Z,1018.09
2017-02-06T06:01:38.173Z,1018.1
2017-02-06T06:02:18.677Z,1018.09
2017-02-06T06:02:59.135Z,1018.06
2017-02-06T06:03:39.647Z,1018.09
2017-02-06T06:04:20.118Z,1018.06
2017-02-06T06:05:00.620Z,1018.08
2017-02-06T06:05:41.094Z,1018.1
2017-02-06T06:06:21.564Z,1018.14
2017-02-06T06:07:02.073Z,1018.09
2017-02-06T06:07:42.590Z,1018.15
2017-02-06T06:08:23.068Z,1018.13
2017-02-06T06:09:03.533Z,1018.13
2017-02-06T06:09:44.014Z,1018.14
2017-02-06T06:10:24.519Z,1018.19
2017-02-06T06:11:05.020Z,1018.18
2017-02-06T06:11:45.518Z,1018.17
2017-02-06T06:12:25.983Z,1018.2
2017-02-06T06:13:06.461Z,1018.2
2017-02-06T06:13:46.953Z,1018.23
2017-02-06T06:14:27.435Z,1018.28
2017-02-06T06:15:07.998Z,1018.24
2017-02-06T06:15:48.474Z,1018.25
2017-02-06T06:16:29.001Z,1018.22
2017-02-06T06:17:09.479Z,1018.29
2017-02-06T06:17:49.925Z,1018.3
2017-02-06T06:18:30.403Z,1018.29
2017-02-06T06:19:10.902Z,1018.24
2017-02-06T06:19:51.393Z,1018.32
2017-02-06T06:20:31.889Z,1018.37
2017-02-06T06:21:12.401Z,1018.33
2017-02-06T06:21:52.842Z,1018.37
2017-02-06T06:22:33.318Z,1018.35
2017-02-06T06:23:13.834Z,1018.37
2017-02-06T06:23:54.330Z,1018.43
2017-02-06T06:24:34.823Z,1018.36
2017-02-06T06:25:15.278Z,1018.42
2017-02-06T06:25:55.771Z,1018.39
2017-02-06T06:26:36.293Z,1018.44
2017-02-06T06:27:16.779Z,1018.42
2017-02-06T06:27:57.296Z,1018.42
2017-02-06T06:28:37.771Z,1018.39
2017-02-06T06:29:18.286Z,1018.45
2017-02-06T06:29:58.777Z,1018.42
2017-02-06T06:30:39.244Z,1018.44
2017-02-06T06:31:19.718Z,1018.47
2017-02-06T06:32:00.221Z,1018.51
2017-02-06T06:32:40.704Z,1018.5
2017-02-06T06:33:21.198Z,1018.47
2017-02-06T06:34:01.709Z,1018.49
2017-02-06T06:34:42.266Z,1018.46
2017-02-06T06:35:22.784Z,1018.56
2017-02-06T06:36:03.277Z,1018.51
2017-02-06T06:36:43.819Z,1018.57
2017-02-06T06:37:24.318Z,1018.59
2017-02-06T06:38:04.817Z,1018.6
2017-02-06T06:38:45.329Z,1018.61
2017-02-06T06:39:25.819Z,1018.66
2017-02-06T06:40:06.340Z,1018.67
2017-02-06T06:40:46.868Z,1018.74
2017-02-06T06:41:27.377Z,1018.75
2017-02-06T06:42:07.886Z,1018.78
2017-02-06T06:42:48.350Z,1018.81
2017-02-06T06:43:28.837Z,1018.86
2017-02-06T06:44:09.374Z,1018.85
2017-02-06T06:44:49.838Z,1018.89
2017-02-06T06:45:30.296Z,1018.87
2017-02-06T06:46:10.847Z,1018.93
2017-02-06T06:46:51.346Z,1018.94
2017-02-06T06:47:31.856Z,1018.93
2017-02-06T06:48:12.346Z,1018.94
2017-02-06T06:48:52.866Z,1018.94
2017-02-06T06:49:33.383Z,1018.97
2017-02-06T06:50:13.965Z,1019
2017-02-06T06:50:54.484Z,1018.99
2017-02-06T06:51:35.049Z,1019.01
2017-02-06T06:52:15.528Z,1019.08
2017-02-06T06:52:56.050Z,1019.04
2017-02-06T06:53:36.611Z,1019.05
2017-02-06T06:54:17.119Z,1019.13
2017-02-06T06:54:57.641Z,1019.11
2017-02-06T06:55:38.176Z,1019.07
2017-02-06T06:56:18.723Z,1019.18
2017-02-06T06:56:59.228Z,1019.2
2017-02-06T06:57:39.725Z,1019.19
2017-02-06T06:58:20.245Z,1019.2
2017-02-06T06:59:00.731Z,1019.26
2017-02-06T06:59:41.275Z,1019.26
2017-02-06T07:00:21.783Z,1019.32
2017-02-06T07:01:02.330Z,1019.29
2017-02-06T07:01:42.809Z,1019.35
2017-02-06T07:02:23.358Z,1019.36
2017-02-06T07:03:04.003Z,1019.37
2017-02-06T07:03:44.675Z,1019.42
2017-02-06T07:04:25.285Z,1019.45
2017-02-06T07:05:05.969Z,1019.42
2017-02-06T07:05:46.658Z,1019.48
2017-02-06T07:06:27.170Z,1019.51
2017-02-06T07:07:07.733Z,1019.5
2017-02-06T07:07:48.151Z,1019.54
2017-02-06T07:08:29.348Z,1019.47
2017-02-06T07:09:11.099Z,1019.53
2017-02-06T07:09:51.646Z,1019.56
2017-02-06T07:10:35.778Z,1019.58
2017-02-06T07:11:16.274Z,1019.65
2017-02-06T07:13:49.969Z,1019.7
2017-02-06T07:14:30.592Z,1019.69
2017-02-06T07:15:11.078Z,1019.69
2017-02-06T07:15:51.619Z,1019.74
2017-02-06T07:16:32.066Z,1019.75
2017-02-06T07:17:12.571Z,1019.76
2017-02-06T07:17:53.089Z,1019.82
2017-02-06T07:18:33.574Z,1019.81
2017-02-06T07:19:14.134Z,1019.81
2017-02-06T07:19:54.614Z,1019.86
2017-02-06T07:20:35.261Z,1019.86
2017-02-06T07:21:16.954Z,1019.83
2017-02-06T07:21:57.330Z,1019.87
2017-02-06T07:22:38.429Z,1019.9
2017-02-06T07:23:19.386Z,1019.84
2017-02-06T07:23:59.982Z,1019.88
2017-02-06T07:24:40.765Z,1019.93
2017-02-06T07:25:21.236Z,1019.94
2017-02-06T07:26:01.713Z,1019.96
2017-02-06T07:26:42.370Z,1019.97
2017-02-06T07:27:22.958Z,1019.94
2017-02-06T07:28:03.375Z,1020
2017-02-06T07:28:43.964Z,1020.01
2017-02-06T07:29:24.908Z,1020.05
2017-02-06T07:30:08.907Z,1020.05
2017-02-06T07:30:54.467Z,1020.07
2017-02-06T07:31:41.218Z,1020.08
2017-02-06T07:32:27.400Z,1020.08
2017-02-06T07:33:08.063Z,1020.12
2017-02-06T07:33:48.586Z,1020.12
2017-02-06T07:34:29.656Z,1020.18
2017-02-06T07:35:10.210Z,1020.13
2017-02-06T07:35:50.675Z,1020.17
2017-02-06T07:36:31.183Z,1020.15
2017-02-06T07:37:11.704Z,1020.16
2017-02-06T07:37:52.298Z,1020.15
2017-02-06T07:38:32.793Z,1020.1
2017-02-06T07:39:13.368Z,1020.16
2017-02-06T07:39:53.957Z,1020.22
2017-02-06T07:40:34.490Z,1020.22
2017-02-06T07:41:15.041Z,1020.24
2017-02-06T07:41:55.582Z,1020.22
2017-02-06T07:42:36.149Z,1020.23
2017-02-06T07:43:17.327Z,1020.19
2017-02-06T07:43:57.866Z,1020.27
2017-02-06T07:44:38.465Z,1020.24
2017-02-06T07:45:19.725Z,1020.29
2017-02-06T07:46:05.738Z,1020.28
2017-02-06T07:46:55.346Z,1020.27
2017-02-06T07:47:41.234Z,1020.28
2017-02-06T07:48:28.143Z,1020.28
2017-02-06T07:49:09.455Z,1020.28
2017-02-06T07:49:49.953Z,1020.28
2017-02-06T07:50:30.521Z,1020.3
2017-02-06T07:51:10.992Z,1020.33
2017-02-06T07:51:51.499Z,1020.37
2017-02-06T07:52:32.684Z,1020.33
2017-02-06T07:53:13.242Z,1020.4
2017-02-06T07:55:27.794Z,1020.36
2017-02-06T07:56:08.293Z,1020.4
2017-02-06T07:56:48.837Z,1020.37
2017-02-06T07:57:29.344Z,1020.4
2017-02-06T07:58:09.873Z,1020.39
2017-02-06T07:58:50.383Z,1020.37
2017-02-06T07:59:30.937Z,1020.38
2017-02-06T08:00:11.437Z,1020.48
2017-02-06T08:00:51.907Z,1020.52
2017-02-06T08:01:33.003Z,1020.49
2017-02-06T08:02:13.523Z,1020.51
2017-02-06T08:02:54.050Z,1020.53
2017-02-06T08:03:34.774Z,1020.49
2017-02-06T08:04:15.372Z,1020.58
2017-02-06T08:04:55.904Z,1020.6
2017-02-06T08:05:36.470Z,1020.55
2017-02-06T08:06:17.044Z,1020.58
2017-02-06T08:06:57.637Z,1020.62
2017-02-06T08:07:38.155Z,1020.6
2017-02-06T08:08:18.649Z,1020.56
2017-02-06T08:08:59.138Z,1020.63
2017-02-06T08:09:41.129Z,1020.65
2017-02-06T08:10:21.672Z,1020.7
2017-02-06T08:11:02.305Z,1020.7
2017-02-06T08:11:43.015Z,1020.73
2017-02-06T08:12:23.550Z,1020.73
2017-02-06T08:13:04.038Z,1020.7
2017-02-06T08:13:44.544Z,1020.73
2017-02-06T08:14:25.518Z,1020.74
2017-02-06T08:15:06.004Z,1020.72
2017-02-06T08:15:48.292Z,1020.74
2017-02-06T08:16:28.903Z,1020.81
2017-02-06T08:17:09.492Z,1020.79
2017-02-06T08:17:50.051Z,1020.83
2017-02-06T08:18:30.542Z,1020.75
2017-02-06T08:19:11.079Z,1020.81
2017-02-06T08:19:51.616Z,1020.83
2017-02-06T08:20:32.373Z,1020.82
2017-02-06T08:21:13.002Z,1020.83
2017-02-06T08:21:53.622Z,1020.84
2017-02-06T08:22:34.509Z,1020.87
2017-02-06T08:23:15.101Z,1020.81
2017-02-06T08:23:55.724Z,1020.81
2017-02-06T08:24:37.341Z,1020.85
2017-02-06T08:25:18.207Z,1020.87
2017-02-06T08:25:59.322Z,1020.86
2017-02-06T08:26:40.273Z,1020.89
2017-02-06T08:27:21.721Z,1020.93
2017-02-06T08:28:02.459Z,1020.92
2017-02-06T08:28:43.263Z,1020.94
2017-02-06T08:29:24.798Z,1020.92
2017-02-06T08:30:05.310Z,1020.94
2017-02-06T08:30:45.920Z,1020.97
2017-02-06T08:31:26.624Z,1020.98
2017-02-06T08:32:07.313Z,1020.95
2017-02-06T08:32:47.957Z,1021
2017-02-06T08:33:28.572Z,1021
2017-02-06T08:34:09.154Z,1020.96
2017-02-06T08:34:50.526Z,1021
2017-02-06T08:35:31.026Z,1020.95
2017-02-06T08:36:11.503Z,1020.99
2017-02-06T08:36:52.086Z,1020.99
2017-02-06T08:37:32.593Z,1021.01
2017-02-06T08:38:13.123Z,1021
2017-02-06T08:38:55.300Z,1021.03
2017-02-06T08:39:37.334Z,1021.03
2017-02-06T08:40:17.875Z,1021.02
2017-02-06T08:40:58.485Z,1021.06
2017-02-06T08:41:39.048Z,1021.07
2017-02-06T08:42:21.242Z,1021.07
2017-02-06T08:43:01.762Z,1021.1
2017-02-06T08:43:43.324Z,1021.16
2017-02-06T08:44:25.540Z,1021.17
2017-02-06T08:45:07.304Z,1021.18
2017-02-06T08:45:51.272Z,1021.16
2017-02-06T08:46:31.804Z,1021.15
2017-02-06T08:47:12.384Z,1021.18
2017-02-06T08:47:53.011Z,1021.2
2017-02-06T08:48:33.665Z,1021.24
2017-02-06T08:49:14.234Z,1021.25
2017-02-06T08:49:55.324Z,1021.2
2017-02-06T08:51:54.159Z,1021.25
2017-02-06T08:52:43.382Z,1021.28
2017-02-06T08:53:30.603Z,1021.29
2017-02-06T08:54:18.407Z,1021.27
2017-02-06T08:55:00.428Z,1021.28
2017-02-06T08:55:40.966Z,1021.3
2017-02-06T08:56:21.554Z,1021.27
2017-02-06T08:57:02.412Z,1021.33
2017-02-06T08:57:47.066Z,1021.32
2017-02-06T08:58:28.777Z,1021.29
2017-02-06T08:59:09.294Z,1021.32
2017-02-06T08:59:49.760Z,1021.27
2017-02-06T09:00:30.292Z,1021.29
2017-02-06T09:01:10.823Z,1021.34
2017-02-06T09:01:52.396Z,1021.31
2017-02-06T09:02:32.912Z,1021.3
2017-02-06T09:03:13.393Z,1021.28
2017-02-06T09:03:57.605Z,1021.33
2017-02-06T09:04:39.639Z,1021.3
2017-02-06T09:05:21.098Z,1021.27
2017-02-06T09:06:02.195Z,1021.29
2017-02-06T09:06:42.710Z,1021.3
2017-02-06T09:12:09.558Z,1021.36
2017-02-06T09:12:50.117Z,1021.33
2017-02-06T09:13:30.582Z,1021.37
2017-02-06T09:14:12.776Z,1021.41
2017-02-06T09:14:56.772Z,1021.41
2017-02-06T09:17:37.754Z,1021.49
2017-02-06T09:18:18.232Z,1021.51
2017-02-06T09:18:58.747Z,1021.58
2017-02-06T09:19:39.224Z,1021.56
2017-02-06T09:20:19.743Z,1021.54
2017-02-06T09:21:00.207Z,1021.56
2017-02-06T09:21:40.688Z,1021.62
2017-02-06T09:22:21.223Z,1021.67
2017-02-06T09:23:01.744Z,1021.68
2017-02-06T09:23:42.229Z,1021.68
2017-02-06T09:24:22.765Z,1021.69
2017-02-06T09:25:03.234Z,1021.67
2017-02-06T09:25:43.698Z,1021.71
2017-02-06T09:26:24.215Z,1021.69
2017-02-06T09:27:04.704Z,1021.77
2017-02-06T09:27:45.195Z,1021.76
2017-02-06T09:28:25.693Z,1021.74
2017-02-06T09:29:06.185Z,1021.73
2017-02-06T09:29:46.911Z,1021.84
2017-02-06T09:30:27.334Z,1021.73
2017-02-06T09:31:07.848Z,1021.84
2017-02-06T09:31:49.308Z,1021.81
2017-02-06T09:32:30.391Z,1021.84
2017-02-06T09:33:10.903Z,1021.87
2017-02-06T09:33:51.519Z,1021.91